Terminal Aerodrome Forecast
Issued by NWS Cleveland, OH

Home | Current Version | Previous Version | Text Only | Print | Product List | Glossary Off
Versions: 1 2 3 4 5 6 7 8 9 10 11 12 13

271
FTUS41 KCLE 242335
TAFMFD
TAF
KMFD 242335Z 2500/2524 10012KT P6SM BKN120
     FM250200 10010KT P6SM SCT035 OVC070
     FM250600 11008KT P6SM OVC035
     FM251200 12006KT 6SM BR VCSH OVC020
     FM251600 12008KT P6SM BKN050=

USA.gov is the U.S. government's official web portal to all federal, state and local government web resources and services.